sensor_id;sensor_type;location;lat;lon;timestamp;P1;durP1;ratioP1;P2;durP2;ratioP2
11791;SDS011;5953;52.372;9.918;2023-06-14T00:01:53;3.13;;;2.60;;
11791;SDS011;5953;52.372;9.918;2023-06-14T00:04:22;6.07;;;2.73;;
11791;SDS011;5953;52.372;9.918;2023-06-14T00:06:51;2.50;;;2.30;;
11791;SDS011;5953;52.372;9.918;2023-06-14T00:09:19;4.10;;;2.80;;
11791;SDS011;5953;52.372;9.918;2023-06-14T00:11:47;2.50;;;2.30;;
11791;SDS011;5953;52.372;9.918;2023-06-14T00:14:14;4.50;;;2.27;;
11791;SDS011;5953;52.372;9.918;2023-06-14T00:16:43;4.83;;;2.70;;
11791;SDS011;5953;52.372;9.918;2023-06-14T00:19:11;3.33;;;2.60;;
11791;SDS011;5953;52.372;9.918;2023-06-14T00:21:38;2.80;;;2.30;;
11791;SDS011;5953;52.372;9.918;2023-06-14T00:24:07;3.23;;;2.30;;
11791;SDS011;5953;52.372;9.918;2023-06-14T00:26:35;3.80;;;2.47;;
11791;SDS011;5953;52.372;9.918;2023-06-14T00:29:02;2.77;;;2.47;;
11791;SDS011;5953;52.372;9.918;2023-06-14T00:31:30;2.80;;;2.27;;
11791;SDS011;5953;52.372;9.918;2023-06-14T00:33:59;2.70;;;2.17;;
11791;SDS011;5953;52.372;9.918;2023-06-14T00:36:26;5.07;;;2.53;;
11791;SDS011;5953;52.372;9.918;2023-06-14T00:38:54;3.07;;;2.33;;
11791;SDS011;5953;52.372;9.918;2023-06-14T00:41:21;3.83;;;3.03;;
11791;SDS011;5953;52.372;9.918;2023-06-14T00:43:50;2.93;;;2.43;;
11791;SDS011;5953;52.372;9.918;2023-06-14T00:46:17;2.87;;;2.50;;
11791;SDS011;5953;52.372;9.918;2023-06-14T00:48:45;2.60;;;2.40;;
11791;SDS011;5953;52.372;9.918;2023-06-14T00:51:14;7.40;;;2.70;;
11791;SDS011;5953;52.372;9.918;2023-06-14T00:53:42;4.57;;;2.37;;
11791;SDS011;5953;52.372;9.918;2023-06-14T00:56:13;2.77;;;2.30;;
11791;SDS011;5953;52.372;9.918;2023-06-14T00:58:41;2.40;;;2.20;;
11791;SDS011;5953;52.372;9.918;2023-06-14T01:01:09;2.93;;;2.63;;
11791;SDS011;5953;52.372;9.918;2023-06-14T01:03:37;3.17;;;2.57;;
11791;SDS011;5953;52.372;9.918;2023-06-14T01:06:11;3.00;;;2.70;;
11791;SDS011;5953;52.372;9.918;2023-06-14T01:08:46;3.50;;;2.73;;
11791;SDS011;5953;52.372;9.918;2023-06-14T01:11:16;3.33;;;2.53;;
11791;SDS011;5953;52.372;9.918;2023-06-14T01:13:46;4.30;;;2.60;;
11791;SDS011;5953;52.372;9.918;2023-06-14T01:16:13;3.80;;;2.40;;
11791;SDS011;5953;52.372;9.918;2023-06-14T01:18:41;2.83;;;2.40;;
11791;SDS011;5953;52.372;9.918;2023-06-14T01:21:20;2.47;;;2.03;;
11791;SDS011;5953;52.372;9.918;2023-06-14T01:23:49;3.53;;;2.97;;
11791;SDS011;5953;52.372;9.918;2023-06-14T01:26:20;3.13;;;2.47;;
11791;SDS011;5953;52.372;9.918;2023-06-14T01:28:48;2.77;;;2.47;;
11791;SDS011;5953;52.372;9.918;2023-06-14T01:31:18;3.37;;;2.40;;
11791;SDS011;5953;52.372;9.918;2023-06-14T01:33:48;4.17;;;2.30;;
11791;SDS011;5953;52.372;9.918;2023-06-14T01:36:16;4.00;;;2.67;;
11791;SDS011;5953;52.372;9.918;2023-06-14T01:38:44;4.40;;;2.37;;
11791;SDS011;5953;52.372;9.918;2023-06-14T01:41:13;3.60;;;2.53;;
11791;SDS011;5953;52.372;9.918;2023-06-14T01:43:41;3.63;;;2.40;;
11791;SDS011;5953;52.372;9.918;2023-06-14T01:46:09;2.77;;;2.33;;
11791;SDS011;5953;52.372;9.918;2023-06-14T01:48:37;3.47;;;2.50;;
11791;SDS011;5953;52.372;9.918;2023-06-14T01:51:05;5.93;;;2.63;;
11791;SDS011;5953;52.372;9.918;2023-06-14T01:53:32;3.03;;;2.27;;
11791;SDS011;5953;52.372;9.918;2023-06-14T01:56:00;2.53;;;2.23;;
11791;SDS011;5953;52.372;9.918;2023-06-14T01:58:29;2.60;;;2.37;;
11791;SDS011;5953;52.372;9.918;2023-06-14T02:00:57;3.53;;;2.00;;
11791;SDS011;5953;52.372;9.918;2023-06-14T02:03:27;3.20;;;2.23;;
11791;SDS011;5953;52.372;9.918;2023-06-14T02:05:54;3.17;;;2.20;;
11791;SDS011;5953;52.372;9.918;2023-06-14T02:08:22;6.83;;;2.43;;
11791;SDS011;5953;52.372;9.918;2023-06-14T02:10:50;2.80;;;2.23;;
11791;SDS011;5953;52.372;9.918;2023-06-14T02:13:18;3.57;;;2.00;;
11791;SDS011;5953;52.372;9.918;2023-06-14T02:15:47;3.00;;;2.03;;
11791;SDS011;5953;52.372;9.918;2023-06-14T02:18:17;3.97;;;2.37;;
11791;SDS011;5953;52.372;9.918;2023-06-14T02:20:45;2.97;;;2.57;;
11791;SDS011;5953;52.372;9.918;2023-06-14T02:23:12;3.10;;;1.93;;
11791;SDS011;5953;52.372;9.918;2023-06-14T02:25:41;4.40;;;2.37;;
11791;SDS011;5953;52.372;9.918;2023-06-14T02:28:11;5.33;;;2.20;;
11791;SDS011;5953;52.372;9.918;2023-06-14T02:30:38;3.77;;;2.40;;
11791;SDS011;5953;52.372;9.918;2023-06-14T02:33:08;4.43;;;2.30;;
11791;SDS011;5953;52.372;9.918;2023-06-14T02:35:38;3.20;;;2.30;;
11791;SDS011;5953;52.372;9.918;2023-06-14T02:38:07;2.40;;;2.00;;
11791;SDS011;5953;52.372;9.918;2023-06-14T02:40:35;3.13;;;2.00;;
11791;SDS011;5953;52.372;9.918;2023-06-14T02:43:02;3.30;;;2.20;;
11791;SDS011;5953;52.372;9.918;2023-06-14T02:45:30;2.90;;;2.50;;
11791;SDS011;5953;52.372;9.918;2023-06-14T02:47:57;3.60;;;2.40;;
11791;SDS011;5953;52.372;9.918;2023-06-14T02:50:26;4.70;;;2.23;;
11791;SDS011;5953;52.372;9.918;2023-06-14T02:52:56;6.37;;;2.73;;
11791;SDS011;5953;52.372;9.918;2023-06-14T02:55:24;4.67;;;2.30;;
11791;SDS011;5953;52.372;9.918;2023-06-14T02:57:53;7.23;;;2.40;;
11791;SDS011;5953;52.372;9.918;2023-06-14T03:00:20;2.57;;;2.30;;
11791;SDS011;5953;52.372;9.918;2023-06-14T03:02:48;3.00;;;2.30;;
11791;SDS011;5953;52.372;9.918;2023-06-14T03:05:18;3.90;;;2.50;;
11791;SDS011;5953;52.372;9.918;2023-06-14T03:07:49;6.97;;;2.50;;
11791;SDS011;5953;52.372;9.918;2023-06-14T03:10:17;4.10;;;2.43;;
11791;SDS011;5953;52.372;9.918;2023-06-14T03:12:44;5.43;;;2.80;;
11791;SDS011;5953;52.372;9.918;2023-06-14T03:15:12;5.87;;;2.60;;
11791;SDS011;5953;52.372;9.918;2023-06-14T03:17:40;4.90;;;2.20;;
11791;SDS011;5953;52.372;9.918;2023-06-14T03:20:11;6.53;;;3.00;;
11791;SDS011;5953;52.372;9.918;2023-06-14T03:22:39;4.23;;;2.40;;
11791;SDS011;5953;52.372;9.918;2023-06-14T03:25:09;3.50;;;2.30;;
11791;SDS011;5953;52.372;9.918;2023-06-14T03:27:36;3.27;;;2.53;;
11791;SDS011;5953;52.372;9.918;2023-06-14T03:30:04;3.03;;;2.50;;
11791;SDS011;5953;52.372;9.918;2023-06-14T03:32:32;3.90;;;2.57;;
11791;SDS011;5953;52.372;9.918;2023-06-14T03:35:00;4.03;;;2.50;;
11791;SDS011;5953;52.372;9.918;2023-06-14T03:37:27;3.47;;;2.77;;
11791;SDS011;5953;52.372;9.918;2023-06-14T03:39:55;2.90;;;2.37;;
11791;SDS011;5953;52.372;9.918;2023-06-14T03:42:24;3.77;;;2.53;;
11791;SDS011;5953;52.372;9.918;2023-06-14T03:44:52;3.27;;;2.30;;
11791;SDS011;5953;52.372;9.918;2023-06-14T03:47:19;3.57;;;2.30;;
11791;SDS011;5953;52.372;9.918;2023-06-14T03:49:47;3.97;;;2.60;;
11791;SDS011;5953;52.372;9.918;2023-06-14T03:52:14;6.43;;;2.20;;
11791;SDS011;5953;52.372;9.918;2023-06-14T03:54:43;4.20;;;2.27;;
11791;SDS011;5953;52.372;9.918;2023-06-14T03:57:14;5.07;;;2.57;;
11791;SDS011;5953;52.372;9.918;2023-06-14T03:59:43;3.10;;;2.33;;
11791;SDS011;5953;52.372;9.918;2023-06-14T04:02:10;4.93;;;2.50;;
11791;SDS011;5953;52.372;9.918;2023-06-14T04:04:41;3.60;;;2.57;;
11791;SDS011;5953;52.372;9.918;2023-06-14T04:07:10;5.10;;;2.60;;
11791;SDS011;5953;52.372;9.918;2023-06-14T04:09:39;2.77;;;2.43;;
11791;SDS011;5953;52.372;9.918;2023-06-14T04:12:09;4.33;;;2.50;;
11791;SDS011;5953;52.372;9.918;2023-06-14T04:14:37;3.23;;;2.13;;
11791;SDS011;5953;52.372;9.918;2023-06-14T04:17:10;2.83;;;2.30;;
11791;SDS011;5953;52.372;9.918;2023-06-14T04:19:37;3.43;;;2.63;;
11791;SDS011;5953;52.372;9.918;2023-06-14T04:22:05;3.27;;;2.30;;
11791;SDS011;5953;52.372;9.918;2023-06-14T04:24:33;2.90;;;2.40;;
11791;SDS011;5953;52.372;9.918;2023-06-14T04:27:01;3.07;;;2.30;;
11791;SDS011;5953;52.372;9.918;2023-06-14T04:29:29;3.70;;;2.10;;
11791;SDS011;5953;52.372;9.918;2023-06-14T04:31:57;2.97;;;2.00;;
11791;SDS011;5953;52.372;9.918;2023-06-14T04:34:28;3.03;;;2.13;;
11791;SDS011;5953;52.372;9.918;2023-06-14T04:36:58;8.90;;;2.57;;
11791;SDS011;5953;52.372;9.918;2023-06-14T04:39:27;2.43;;;2.23;;
11791;SDS011;5953;52.372;9.918;2023-06-14T04:41:54;3.73;;;2.40;;
11791;SDS011;5953;52.372;9.918;2023-06-14T04:44:27;4.07;;;1.97;;
11791;SDS011;5953;52.372;9.918;2023-06-14T04:46:58;2.87;;;2.10;;
11791;SDS011;5953;52.372;9.918;2023-06-14T04:49:25;3.23;;;2.00;;
11791;SDS011;5953;52.372;9.918;2023-06-14T04:51:56;3.93;;;2.30;;
11791;SDS011;5953;52.372;9.918;2023-06-14T04:54:26;4.83;;;2.13;;
11791;SDS011;5953;52.372;9.918;2023-06-14T04:56:53;2.07;;;1.87;;
11791;SDS011;5953;52.372;9.918;2023-06-14T04:59:21;3.63;;;1.97;;
11791;SDS011;5953;52.372;9.918;2023-06-14T05:01:49;3.13;;;2.30;;
11791;SDS011;5953;52.372;9.918;2023-06-14T05:04:18;2.27;;;1.80;;
11791;SDS011;5953;52.372;9.918;2023-06-14T05:06:49;5.13;;;2.00;;
11791;SDS011;5953;52.372;9.918;2023-06-14T05:09:18;6.70;;;1.90;;
11791;SDS011;5953;52.372;9.918;2023-06-14T05:11:46;3.37;;;1.90;;
11791;SDS011;5953;52.372;9.918;2023-06-14T05:14:14;3.97;;;2.10;;
11791;SDS011;5953;52.372;9.918;2023-06-14T05:16:41;2.00;;;1.80;;
11791;SDS011;5953;52.372;9.918;2023-06-14T05:19:09;3.67;;;2.07;;
11791;SDS011;5953;52.372;9.918;2023-06-14T05:21:37;5.43;;;3.03;;
11791;SDS011;5953;52.372;9.918;2023-06-14T05:24:09;2.80;;;1.80;;
11791;SDS011;5953;52.372;9.918;2023-06-14T05:26:39;2.00;;;1.80;;
11791;SDS011;5953;52.372;9.918;2023-06-14T05:29:06;3.47;;;2.00;;
11791;SDS011;5953;52.372;9.918;2023-06-14T05:31:34;2.10;;;1.70;;
11791;SDS011;5953;52.372;9.918;2023-06-14T05:34:02;3.60;;;1.67;;
11791;SDS011;5953;52.372;9.918;2023-06-14T05:36:30;2.73;;;2.07;;
11791;SDS011;5953;52.372;9.918;2023-06-14T05:38:57;2.93;;;1.80;;
11791;SDS011;5953;52.372;9.918;2023-06-14T05:41:26;2.57;;;1.70;;
11791;SDS011;5953;52.372;9.918;2023-06-14T05:43:55;2.67;;;1.83;;
11791;SDS011;5953;52.372;9.918;2023-06-14T05:46:23;3.73;;;1.73;;
11791;SDS011;5953;52.372;9.918;2023-06-14T05:48:52;1.97;;;1.70;;
11791;SDS011;5953;52.372;9.918;2023-06-14T05:51:20;1.80;;;1.63;;
11791;SDS011;5953;52.372;9.918;2023-06-14T05:53:48;2.77;;;1.87;;
11791;SDS011;5953;52.372;9.918;2023-06-14T05:56:18;4.27;;;2.20;;
11791;SDS011;5953;52.372;9.918;2023-06-14T05:58:46;6.17;;;2.13;;
11791;SDS011;5953;52.372;9.918;2023-06-14T06:01:15;4.10;;;1.87;;
11791;SDS011;5953;52.372;9.918;2023-06-14T06:03:43;2.03;;;1.87;;
11791;SDS011;5953;52.372;9.918;2023-06-14T06:06:12;1.90;;;1.70;;
11791;SDS011;5953;52.372;9.918;2023-06-14T06:08:40;3.80;;;1.53;;
11791;SDS011;5953;52.372;9.918;2023-06-14T06:11:08;10.57;;;2.00;;
11791;SDS011;5953;52.372;9.918;2023-06-14T06:13:37;3.40;;;2.00;;
11791;SDS011;5953;52.372;9.918;2023-06-14T06:16:05;3.67;;;2.37;;
11791;SDS011;5953;52.372;9.918;2023-06-14T06:18:34;2.30;;;2.00;;
11791;SDS011;5953;52.372;9.918;2023-06-14T06:21:03;2.40;;;2.20;;
11791;SDS011;5953;52.372;9.918;2023-06-14T06:23:31;2.50;;;2.17;;
11791;SDS011;5953;52.372;9.918;2023-06-14T06:25:58;3.40;;;2.40;;
11791;SDS011;5953;52.372;9.918;2023-06-14T06:28:26;3.73;;;2.20;;
11791;SDS011;5953;52.372;9.918;2023-06-14T06:30:54;3.27;;;2.30;;
11791;SDS011;5953;52.372;9.918;2023-06-14T06:33:22;5.80;;;2.70;;
11791;SDS011;5953;52.372;9.918;2023-06-14T06:35:51;3.90;;;2.20;;
11791;SDS011;5953;52.372;9.918;2023-06-14T06:38:19;2.23;;;2.03;;
11791;SDS011;5953;52.372;9.918;2023-06-14T06:40:47;2.37;;;2.00;;
11791;SDS011;5953;52.372;9.918;2023-06-14T06:43:14;4.23;;;2.03;;
11791;SDS011;5953;52.372;9.918;2023-06-14T06:45:43;2.50;;;2.30;;
11791;SDS011;5953;52.372;9.918;2023-06-14T06:48:10;3.10;;;2.00;;
11791;SDS011;5953;52.372;9.918;2023-06-14T06:50:38;3.20;;;2.53;;
11791;SDS011;5953;52.372;9.918;2023-06-14T06:53:07;5.53;;;2.37;;
11791;SDS011;5953;52.372;9.918;2023-06-14T06:55:36;4.13;;;2.00;;
11791;SDS011;5953;52.372;9.918;2023-06-14T06:58:03;2.67;;;1.90;;
11791;SDS011;5953;52.372;9.918;2023-06-14T07:00:33;2.30;;;2.10;;
11791;SDS011;5953;52.372;9.918;2023-06-14T07:03:01;2.23;;;2.00;;
11791;SDS011;5953;52.372;9.918;2023-06-14T07:05:30;4.00;;;2.00;;
11791;SDS011;5953;52.372;9.918;2023-06-14T07:07:58;2.23;;;1.90;;
11791;SDS011;5953;52.372;9.918;2023-06-14T07:10:27;3.63;;;2.27;;
11791;SDS011;5953;52.372;9.918;2023-06-14T07:12:55;2.37;;;2.17;;
11791;SDS011;5953;52.372;9.918;2023-06-14T07:15:23;2.60;;;1.80;;
11791;SDS011;5953;52.372;9.918;2023-06-14T07:17:51;2.83;;;2.20;;
11791;SDS011;5953;52.372;9.918;2023-06-14T07:20:19;2.47;;;2.10;;
11791;SDS011;5953;52.372;9.918;2023-06-14T07:22:49;3.40;;;2.00;;
11791;SDS011;5953;52.372;9.918;2023-06-14T07:25:17;5.63;;;1.90;;
11791;SDS011;5953;52.372;9.918;2023-06-14T07:27:47;2.97;;;2.00;;
11791;SDS011;5953;52.372;9.918;2023-06-14T07:30:16;3.30;;;2.13;;
11791;SDS011;5953;52.372;9.918;2023-06-14T07:32:44;19.77;;;3.93;;
11791;SDS011;5953;52.372;9.918;2023-06-14T07:35:11;2.10;;;1.80;;
11791;SDS011;5953;52.372;9.918;2023-06-14T07:37:40;5.13;;;1.90;;
11791;SDS011;5953;52.372;9.918;2023-06-14T07:40:08;3.33;;;1.90;;
11791;SDS011;5953;52.372;9.918;2023-06-14T07:42:36;3.23;;;1.90;;
11791;SDS011;5953;52.372;9.918;2023-06-14T07:45:06;2.40;;;2.20;;
11791;SDS011;5953;52.372;9.918;2023-06-14T07:47:36;2.73;;;2.00;;
11791;SDS011;5953;52.372;9.918;2023-06-14T07:50:04;5.40;;;1.80;;
11791;SDS011;5953;52.372;9.918;2023-06-14T07:52:32;2.87;;;1.87;;
11791;SDS011;5953;52.372;9.918;2023-06-14T07:55:00;2.50;;;2.30;;
11791;SDS011;5953;52.372;9.918;2023-06-14T07:57:28;2.70;;;1.90;;
11791;SDS011;5953;52.372;9.918;2023-06-14T07:59:57;2.10;;;1.90;;
11791;SDS011;5953;52.372;9.918;2023-06-14T08:02:27;3.00;;;1.90;;
11791;SDS011;5953;52.372;9.918;2023-06-14T08:04:55;3.13;;;2.20;;
11791;SDS011;5953;52.372;9.918;2023-06-14T08:07:23;2.27;;;2.00;;
11791;SDS011;5953;52.372;9.918;2023-06-14T08:09:51;2.00;;;1.80;;
11791;SDS011;5953;52.372;9.918;2023-06-14T08:12:18;1.97;;;1.70;;
11791;SDS011;5953;52.372;9.918;2023-06-14T08:14:46;5.40;;;2.27;;
11791;SDS011;5953;52.372;9.918;2023-06-14T08:17:28;4.30;;;1.80;;
11791;SDS011;5953;52.372;9.918;2023-06-14T08:19:56;2.07;;;1.80;;
11791;SDS011;5953;52.372;9.918;2023-06-14T08:22:24;2.80;;;1.90;;
11791;SDS011;5953;52.372;9.918;2023-06-14T08:24:54;2.50;;;1.50;;
11791;SDS011;5953;52.372;9.918;2023-06-14T08:27:22;2.43;;;2.23;;
11791;SDS011;5953;52.372;9.918;2023-06-14T08:29:49;2.60;;;1.73;;
11791;SDS011;5953;52.372;9.918;2023-06-14T08:32:19;4.20;;;1.77;;
11791;SDS011;5953;52.372;9.918;2023-06-14T08:34:48;4.03;;;2.80;;
11791;SDS011;5953;52.372;9.918;2023-06-14T08:37:30;2.83;;;2.00;;
11791;SDS011;5953;52.372;9.918;2023-06-14T08:39:58;2.40;;;1.80;;
11791;SDS011;5953;52.372;9.918;2023-06-14T08:42:25;1.97;;;1.80;;
11791;SDS011;5953;52.372;9.918;2023-06-14T08:44:58;3.43;;;1.80;;
11791;SDS011;5953;52.372;9.918;2023-06-14T08:47:29;1.87;;;1.57;;
11791;SDS011;5953;52.372;9.918;2023-06-14T08:50:09;2.43;;;1.97;;
11791;SDS011;5953;52.372;9.918;2023-06-14T08:52:54;2.93;;;1.90;;
11791;SDS011;5953;52.372;9.918;2023-06-14T08:55:23;5.73;;;2.13;;
11791;SDS011;5953;52.372;9.918;2023-06-14T08:57:54;2.03;;;1.50;;
11791;SDS011;5953;52.372;9.918;2023-06-14T09:00:22;5.40;;;2.03;;
11791;SDS011;5953;52.372;9.918;2023-06-14T09:02:50;3.88;;;2.30;;
11791;SDS011;5953;52.372;9.918;2023-06-14T09:05:23;3.00;;;2.00;;
11791;SDS011;5953;52.372;9.918;2023-06-14T09:07:52;3.15;;;1.95;;
11791;SDS011;5953;52.372;9.918;2023-06-14T09:10:21;2.03;;;1.83;;
11791;SDS011;5953;52.372;9.918;2023-06-14T09:12:50;2.27;;;2.07;;
11791;SDS011;5953;52.372;9.918;2023-06-14T09:15:18;3.38;;;1.77;;
11791;SDS011;5953;52.372;9.918;2023-06-14T09:17:48;2.15;;;1.95;;
11791;SDS011;5953;52.372;9.918;2023-06-14T09:20:16;3.08;;;1.85;;
11791;SDS011;5953;52.372;9.918;2023-06-14T09:22:48;1.95;;;1.80;;
11791;SDS011;5953;52.372;9.918;2023-06-14T09:25:16;1.70;;;1.60;;
11791;SDS011;5953;52.372;9.918;2023-06-14T09:28:05;2.42;;;2.22;;
11791;SDS011;5953;52.372;9.918;2023-06-14T09:30:33;2.65;;;2.00;;
11791;SDS011;5953;52.372;9.918;2023-06-14T09:33:02;4.47;;;1.83;;
11791;SDS011;5953;52.372;9.918;2023-06-14T09:35:30;2.70;;;1.92;;
11791;SDS011;5953;52.372;9.918;2023-06-14T09:37:59;2.33;;;2.10;;
11791;SDS011;5953;52.372;9.918;2023-06-14T09:40:28;1.75;;;1.65;;
11791;SDS011;5953;52.372;9.918;2023-06-14T09:42:56;2.72;;;1.98;;
11791;SDS011;5953;52.372;9.918;2023-06-14T09:45:25;2.42;;;2.03;;
11791;SDS011;5953;52.372;9.918;2023-06-14T09:47:56;2.25;;;2.05;;
11791;SDS011;5953;52.372;9.918;2023-06-14T09:50:33;2.08;;;1.33;;
11791;SDS011;5953;52.372;9.918;2023-06-14T09:53:05;4.60;;;2.05;;
11791;SDS011;5953;52.372;9.918;2023-06-14T09:55:34;3.33;;;2.08;;
11791;SDS011;5953;52.372;9.918;2023-06-14T09:58:04;3.67;;;2.10;;
11791;SDS011;5953;52.372;9.918;2023-06-14T10:00:34;2.50;;;2.30;;
11791;SDS011;5953;52.372;9.918;2023-06-14T10:03:03;2.40;;;2.00;;
11791;SDS011;5953;52.372;9.918;2023-06-14T10:05:35;2.00;;;1.80;;
11791;SDS011;5953;52.372;9.918;2023-06-14T10:08:09;2.15;;;1.95;;
11791;SDS011;5953;52.372;9.918;2023-06-14T10:10:38;2.90;;;2.60;;
11791;SDS011;5953;52.372;9.918;2023-06-14T10:13:06;3.67;;;2.00;;
11791;SDS011;5953;52.372;9.918;2023-06-14T10:15:35;2.80;;;2.25;;
11791;SDS011;5953;52.372;9.918;2023-06-14T10:18:07;2.47;;;2.10;;
11791;SDS011;5953;52.372;9.918;2023-06-14T10:20:36;3.35;;;2.15;;
11791;SDS011;5953;52.372;9.918;2023-06-14T10:23:07;2.47;;;2.28;;
11791;SDS011;5953;52.372;9.918;2023-06-14T10:25:37;3.10;;;2.45;;
11791;SDS011;5953;52.372;9.918;2023-06-14T10:28:14;2.25;;;2.05;;
11791;SDS011;5953;52.372;9.918;2023-06-14T10:31:03;3.13;;;2.10;;
11791;SDS011;5953;52.372;9.918;2023-06-14T10:33:31;2.50;;;2.30;;
11791;SDS011;5953;52.372;9.918;2023-06-14T10:38:59;6.63;;;3.08;;
11791;SDS011;5953;52.372;9.918;2023-06-14T10:41:31;3.92;;;2.60;;
11791;SDS011;5953;52.372;9.918;2023-06-14T10:44:10;3.85;;;2.50;;
11791;SDS011;5953;52.372;9.918;2023-06-14T10:46:41;3.15;;;2.30;;
11791;SDS011;5953;52.372;9.918;2023-06-14T10:49:15;3.25;;;2.40;;
11791;SDS011;5953;52.372;9.918;2023-06-14T10:51:44;3.95;;;2.50;;
11791;SDS011;5953;52.372;9.918;2023-06-14T10:54:13;5.05;;;2.50;;
11791;SDS011;5953;52.372;9.918;2023-06-14T10:56:47;3.45;;;2.50;;
11791;SDS011;5953;52.372;9.918;2023-06-14T10:59:15;2.80;;;2.17;;
11791;SDS011;5953;52.372;9.918;2023-06-14T11:01:48;3.25;;;2.28;;
11791;SDS011;5953;52.372;9.918;2023-06-14T11:04:20;3.40;;;2.17;;
11791;SDS011;5953;52.372;9.918;2023-06-14T11:06:49;3.53;;;2.60;;
11791;SDS011;5953;52.372;9.918;2023-06-14T11:12:04;5.07;;;2.25;;
11791;SDS011;5953;52.372;9.918;2023-06-14T11:14:34;3.67;;;2.60;;
11791;SDS011;5953;52.372;9.918;2023-06-14T11:17:01;3.08;;;2.65;;
11791;SDS011;5953;52.372;9.918;2023-06-14T11:19:29;6.03;;;3.03;;
11791;SDS011;5953;52.372;9.918;2023-06-14T11:21:58;11.57;;;3.58;;
11791;SDS011;5953;52.372;9.918;2023-06-14T11:24:26;3.38;;;2.25;;
11791;SDS011;5953;52.372;9.918;2023-06-14T11:26:54;3.10;;;2.40;;
11791;SDS011;5953;52.372;9.918;2023-06-14T11:29:24;4.13;;;2.42;;
11791;SDS011;5953;52.372;9.918;2023-06-14T11:31:52;3.08;;;2.35;;
11791;SDS011;5953;52.372;9.918;2023-06-14T11:34:19;4.50;;;2.75;;
11791;SDS011;5953;52.372;9.918;2023-06-14T11:36:47;3.08;;;2.60;;
11791;SDS011;5953;52.372;9.918;2023-06-14T11:39:15;3.88;;;2.60;;
11791;SDS011;5953;52.372;9.918;2023-06-14T11:41:44;4.65;;;2.78;;
11791;SDS011;5953;52.372;9.918;2023-06-14T11:44:12;3.65;;;2.40;;
11791;SDS011;5953;52.372;9.918;2023-06-14T11:46:41;4.05;;;2.60;;
11791;SDS011;5953;52.372;9.918;2023-06-14T11:49:09;3.20;;;2.30;;
11791;SDS011;5953;52.372;9.918;2023-06-14T11:51:37;4.55;;;2.80;;
11791;SDS011;5953;52.372;9.918;2023-06-14T11:54:05;4.65;;;3.33;;
11791;SDS011;5953;52.372;9.918;2023-06-14T11:56:33;2.60;;;2.40;;
11791;SDS011;5953;52.372;9.918;2023-06-14T11:59:01;5.47;;;2.50;;
11791;SDS011;5953;52.372;9.918;2023-06-14T12:01:30;3.15;;;2.58;;
11791;SDS011;5953;52.372;9.918;2023-06-14T12:04:00;4.30;;;3.10;;
11791;SDS011;5953;52.372;9.918;2023-06-14T12:06:29;5.72;;;3.00;;
11791;SDS011;5953;52.372;9.918;2023-06-14T12:09:00;4.13;;;3.13;;
11791;SDS011;5953;52.372;9.918;2023-06-14T12:11:31;5.57;;;2.90;;
11791;SDS011;5953;52.372;9.918;2023-06-14T12:13:59;6.03;;;3.13;;
11791;SDS011;5953;52.372;9.918;2023-06-14T12:16:32;4.75;;;2.80;;
11791;SDS011;5953;52.372;9.918;2023-06-14T12:19:07;4.85;;;3.00;;
11791;SDS011;5953;52.372;9.918;2023-06-14T12:21:36;4.18;;;3.10;;
11791;SDS011;5953;52.372;9.918;2023-06-14T12:24:05;3.65;;;2.92;;
11791;SDS011;5953;52.372;9.918;2023-06-14T12:26:33;7.20;;;2.95;;
11791;SDS011;5953;52.372;9.918;2023-06-14T12:29:02;2.80;;;2.60;;
11791;SDS011;5953;52.372;9.918;2023-06-14T12:31:32;4.97;;;3.08;;
11791;SDS011;5953;52.372;9.918;2023-06-14T12:34:00;6.63;;;3.08;;
11791;SDS011;5953;52.372;9.918;2023-06-14T12:36:29;4.38;;;3.10;;
11791;SDS011;5953;52.372;9.918;2023-06-14T12:38:59;5.63;;;3.25;;
11791;SDS011;5953;52.372;9.918;2023-06-14T12:41:27;4.82;;;3.40;;
11791;SDS011;5953;52.372;9.918;2023-06-14T12:43:55;6.38;;;3.00;;
11791;SDS011;5953;52.372;9.918;2023-06-14T12:46:26;11.73;;;3.40;;
11791;SDS011;5953;52.372;9.918;2023-06-14T12:48:56;3.60;;;2.95;;
11791;SDS011;5953;52.372;9.918;2023-06-14T12:51:24;4.45;;;3.03;;
11791;SDS011;5953;52.372;9.918;2023-06-14T12:53:54;6.05;;;3.17;;
11791;SDS011;5953;52.372;9.918;2023-06-14T12:56:22;4.68;;;2.53;;
11791;SDS011;5953;52.372;9.918;2023-06-14T12:58:50;4.53;;;2.78;;
11791;SDS011;5953;52.372;9.918;2023-06-14T13:01:18;5.13;;;3.05;;
11791;SDS011;5953;52.372;9.918;2023-06-14T13:03:46;3.45;;;3.00;;
11791;SDS011;5953;52.372;9.918;2023-06-14T13:06:14;4.53;;;2.97;;
11791;SDS011;5953;52.372;9.918;2023-06-14T13:08:41;3.92;;;3.00;;
11791;SDS011;5953;52.372;9.918;2023-06-14T13:11:10;3.85;;;3.15;;
11791;SDS011;5953;52.372;9.918;2023-06-14T13:13:38;3.10;;;2.70;;
11791;SDS011;5953;52.372;9.918;2023-06-14T13:16:06;4.28;;;3.38;;
11791;SDS011;5953;52.372;9.918;2023-06-14T13:18:34;7.68;;;3.50;;
11791;SDS011;5953;52.372;9.918;2023-06-14T13:21:02;4.40;;;2.95;;
11791;SDS011;5953;52.372;9.918;2023-06-14T13:23:29;3.25;;;2.95;;
11791;SDS011;5953;52.372;9.918;2023-06-14T13:25:57;6.10;;;3.30;;
11791;SDS011;5953;52.372;9.918;2023-06-14T13:28:30;4.38;;;2.83;;
11791;SDS011;5953;52.372;9.918;2023-06-14T13:30:58;5.10;;;3.70;;
11791;SDS011;5953;52.372;9.918;2023-06-14T13:33:27;3.50;;;3.20;;
11791;SDS011;5953;52.372;9.918;2023-06-14T13:35:54;3.78;;;3.33;;
11791;SDS011;5953;52.372;9.918;2023-06-14T13:38:22;6.00;;;3.30;;
11791;SDS011;5953;52.372;9.918;2023-06-14T13:40:50;4.57;;;2.95;;
11791;SDS011;5953;52.372;9.918;2023-06-14T13:43:18;5.72;;;3.22;;
11791;SDS011;5953;52.372;9.918;2023-06-14T13:45:47;4.65;;;3.42;;
11791;SDS011;5953;52.372;9.918;2023-06-14T13:48:14;6.80;;;2.97;;
11791;SDS011;5953;52.372;9.918;2023-06-14T13:50:43;5.90;;;3.13;;
11791;SDS011;5953;52.372;9.918;2023-06-14T13:53:12;4.53;;;2.90;;
11791;SDS011;5953;52.372;9.918;2023-06-14T13:55:40;3.47;;;3.05;;
11791;SDS011;5953;52.372;9.918;2023-06-14T13:58:08;5.60;;;3.03;;
11791;SDS011;5953;52.372;9.918;2023-06-14T14:00:35;5.00;;;2.90;;
11791;SDS011;5953;52.372;9.918;2023-06-14T14:03:08;4.07;;;3.25;;
11791;SDS011;5953;52.372;9.918;2023-06-14T14:05:36;5.35;;;3.03;;
11791;SDS011;5953;52.372;9.918;2023-06-14T14:08:04;5.85;;;3.30;;
11791;SDS011;5953;52.372;9.918;2023-06-14T14:10:33;4.03;;;3.00;;
11791;SDS011;5953;52.372;9.918;2023-06-14T14:13:02;3.20;;;2.90;;
11791;SDS011;5953;52.372;9.918;2023-06-14T14:15:43;3.33;;;2.97;;
11791;SDS011;5953;52.372;9.918;2023-06-14T14:18:13;7.63;;;3.10;;
11791;SDS011;5953;52.372;9.918;2023-06-14T14:20:41;4.38;;;3.03;;
11791;SDS011;5953;52.372;9.918;2023-06-14T14:23:12;6.88;;;3.20;;
11791;SDS011;5953;52.372;9.918;2023-06-14T14:25:41;5.85;;;3.45;;
11791;SDS011;5953;52.372;9.918;2023-06-14T14:28:09;3.38;;;3.08;;
11791;SDS011;5953;52.372;9.918;2023-06-14T14:30:38;8.57;;;3.42;;
11791;SDS011;5953;52.372;9.918;2023-06-14T14:33:06;7.18;;;3.47;;
11791;SDS011;5953;52.372;9.918;2023-06-14T14:35:35;5.28;;;2.90;;
11791;SDS011;5953;52.372;9.918;2023-06-14T14:38:06;5.53;;;3.50;;
11791;SDS011;5953;52.372;9.918;2023-06-14T14:40:34;3.35;;;2.60;;
11791;SDS011;5953;52.372;9.918;2023-06-14T14:43:02;5.05;;;3.55;;
11791;SDS011;5953;52.372;9.918;2023-06-14T14:45:31;4.47;;;3.10;;
11791;SDS011;5953;52.372;9.918;2023-06-14T14:48:00;4.72;;;3.00;;
11791;SDS011;5953;52.372;9.918;2023-06-14T14:50:28;5.15;;;3.40;;
11791;SDS011;5953;52.372;9.918;2023-06-14T14:52:57;4.55;;;3.40;;
11791;SDS011;5953;52.372;9.918;2023-06-14T14:55:25;4.22;;;2.70;;
11791;SDS011;5953;52.372;9.918;2023-06-14T14:57:52;3.58;;;3.17;;
11791;SDS011;5953;52.372;9.918;2023-06-14T15:00:20;5.28;;;3.20;;
11791;SDS011;5953;52.372;9.918;2023-06-14T15:02:48;5.43;;;2.97;;
11791;SDS011;5953;52.372;9.918;2023-06-14T15:05:16;3.83;;;3.40;;
11791;SDS011;5953;52.372;9.918;2023-06-14T15:07:44;5.03;;;3.97;;
11791;SDS011;5953;52.372;9.918;2023-06-14T15:10:13;3.60;;;3.13;;
11791;SDS011;5953;52.372;9.918;2023-06-14T15:12:41;5.00;;;2.90;;
11791;SDS011;5953;52.372;9.918;2023-06-14T15:15:12;6.22;;;3.63;;
11791;SDS011;5953;52.372;9.918;2023-06-14T15:17:40;5.15;;;3.45;;